sensor_id;sensor_type;location;lat;lon;timestamp;temperature;humidity
23065;DHT22;17153;51.212;3.228;2022-09-09T00:01:33;19.10;99.90
23065;DHT22;17153;51.212;3.228;2022-09-09T00:09:49;19.10;99.90
23065;DHT22;17153;51.212;3.228;2022-09-09T00:12:39;19.20;99.90
23065;DHT22;17153;51.212;3.228;2022-09-09T00:15:13;19.20;99.90
23065;DHT22;17153;51.212;3.228;2022-09-09T00:17:48;19.20;99.90
23065;DHT22;17153;51.212;3.228;2022-09-09T00:20:25;19.10;99.90
23065;DHT22;17153;51.212;3.228;2022-09-09T00:23:12;19.10;99.90
23065;DHT22;17153;51.212;3.228;2022-09-09T00:28:28;19.00;99.90
23065;DHT22;17153;51.212;3.228;2022-09-09T00:31:04;19.00;99.90
23065;DHT22;17153;51.212;3.228;2022-09-09T00:33:34;19.00;99.90
23065;DHT22;17153;51.212;3.228;2022-09-09T00:36:00;19.00;99.90
23065;DHT22;17153;51.212;3.228;2022-09-09T00:38:31;18.90;99.90
23065;DHT22;17153;51.212;3.228;2022-09-09T00:41:14;19.00;99.90
23065;DHT22;17153;51.212;3.228;2022-09-09T00:43:46;18.90;99.90
23065;DHT22;17153;51.212;3.228;2022-09-09T00:55:26;18.90;99.90
23065;DHT22;17153;51.212;3.228;2022-09-09T00:57:54;18.90;99.90
23065;DHT22;17153;51.212;3.228;2022-09-09T01:00:25;18.80;99.90
23065;DHT22;17153;51.212;3.228;2022-09-09T01:06:01;18.80;99.90
23065;DHT22;17153;51.212;3.228;2022-09-09T01:11:01;18.80;99.90
23065;DHT22;17153;51.212;3.228;2022-09-09T01:13:36;18.70;99.90
23065;DHT22;17153;51.212;3.228;2022-09-09T01:16:04;18.70;99.90
23065;DHT22;17153;51.212;3.228;2022-09-09T01:18:48;18.70;99.90
23065;DHT22;17153;51.212;3.228;2022-09-09T01:26:44;18.80;99.90
23065;DHT22;17153;51.212;3.228;2022-09-09T01:29:13;18.80;99.90
23065;DHT22;17153;51.212;3.228;2022-09-09T01:34:17;18.80;99.90
23065;DHT22;17153;51.212;3.228;2022-09-09T01:39:19;18.80;99.90
23065;DHT22;17153;51.212;3.228;2022-09-09T01:41:45;18.90;99.90
23065;DHT22;17153;51.212;3.228;2022-09-09T01:44:11;18.90;99.90
23065;DHT22;17153;51.212;3.228;2022-09-09T01:46:37;18.90;99.90
23065;DHT22;17153;51.212;3.228;2022-09-09T01:49:05;18.90;99.90
23065;DHT22;17153;51.212;3.228;2022-09-09T01:51:32;18.80;99.90
23065;DHT22;17153;51.212;3.228;2022-09-09T01:53:58;18.80;99.90
23065;DHT22;17153;51.212;3.228;2022-09-09T02:04:43;18.80;99.90
23065;DHT22;17153;51.212;3.228;2022-09-09T02:09:47;18.80;99.90
23065;DHT22;17153;51.212;3.228;2022-09-09T02:12:18;18.80;99.90
23065;DHT22;17153;51.212;3.228;2022-09-09T02:14:56;18.70;99.90
23065;DHT22;17153;51.212;3.228;2022-09-09T02:17:28;18.80;99.90
23065;DHT22;17153;51.212;3.228;2022-09-09T02:20:01;18.80;99.90
23065;DHT22;17153;51.212;3.228;2022-09-09T02:22:28;18.70;99.90
23065;DHT22;17153;51.212;3.228;2022-09-09T02:24:57;18.70;99.90
23065;DHT22;17153;51.212;3.228;2022-09-09T02:27:24;18.70;99.90
23065;DHT22;17153;51.212;3.228;2022-09-09T02:29:51;18.60;99.90
23065;DHT22;17153;51.212;3.228;2022-09-09T02:32:22;18.50;99.90
23065;DHT22;17153;51.212;3.228;2022-09-09T02:34:50;18.60;99.90
23065;DHT22;17153;51.212;3.228;2022-09-09T02:37:21;18.50;99.90
23065;DHT22;17153;51.212;3.228;2022-09-09T02:39:48;18.60;99.90
23065;DHT22;17153;51.212;3.228;2022-09-09T02:42:14;18.60;99.90
23065;DHT22;17153;51.212;3.228;2022-09-09T02:44:40;18.60;99.90
23065;DHT22;17153;51.212;3.228;2022-09-09T02:52:15;18.50;99.90
23065;DHT22;17153;51.212;3.228;2022-09-09T02:54:44;18.60;99.90
23065;DHT22;17153;51.212;3.228;2022-09-09T02:57:21;18.60;99.90
23065;DHT22;17153;51.212;3.228;2022-09-09T02:59:48;18.70;99.90
23065;DHT22;17153;51.212;3.228;2022-09-09T03:02:14;18.60;99.90
23065;DHT22;17153;51.212;3.228;2022-09-09T03:04:40;18.70;99.90
23065;DHT22;17153;51.212;3.228;2022-09-09T03:07:07;18.60;99.90
23065;DHT22;17153;51.212;3.228;2022-09-09T03:09:32;18.60;99.90
23065;DHT22;17153;51.212;3.228;2022-09-09T03:11:58;18.70;99.90
23065;DHT22;17153;51.212;3.228;2022-09-09T03:14:24;18.70;99.90
23065;DHT22;17153;51.212;3.228;2022-09-09T03:16:51;18.70;99.90
23065;DHT22;17153;51.212;3.228;2022-09-09T03:19:17;18.60;99.90
23065;DHT22;17153;51.212;3.228;2022-09-09T03:21:44;18.70;99.90
23065;DHT22;17153;51.212;3.228;2022-09-09T03:24:10;18.50;99.90
23065;DHT22;17153;51.212;3.228;2022-09-09T03:26:36;18.50;99.90
23065;DHT22;17153;51.212;3.228;2022-09-09T03:29:03;18.40;99.90
23065;DHT22;17153;51.212;3.228;2022-09-09T03:31:32;18.30;99.90
23065;DHT22;17153;51.212;3.228;2022-09-09T03:33:58;18.30;99.90
23065;DHT22;17153;51.212;3.228;2022-09-09T03:36:26;18.40;99.90
23065;DHT22;17153;51.212;3.228;2022-09-09T03:38:53;18.40;99.90
23065;DHT22;17153;51.212;3.228;2022-09-09T03:41:20;18.40;99.90
23065;DHT22;17153;51.212;3.228;2022-09-09T03:43:52;18.50;99.90
23065;DHT22;17153;51.212;3.228;2022-09-09T03:46:19;18.50;99.90
23065;DHT22;17153;51.212;3.228;2022-09-09T03:48:44;18.50;99.90
23065;DHT22;17153;51.212;3.228;2022-09-09T03:51:10;18.40;99.90
23065;DHT22;17153;51.212;3.228;2022-09-09T03:53:36;18.40;99.90
23065;DHT22;17153;51.212;3.228;2022-09-09T03:56:04;18.50;99.90
23065;DHT22;17153;51.212;3.228;2022-09-09T03:58:33;18.40;99.90
23065;DHT22;17153;51.212;3.228;2022-09-09T04:00:59;18.50;99.90
23065;DHT22;17153;51.212;3.228;2022-09-09T04:03:26;18.40;99.90
23065;DHT22;17153;51.212;3.228;2022-09-09T04:05:52;18.40;99.90
23065;DHT22;17153;51.212;3.228;2022-09-09T04:08:20;18.40;99.90
23065;DHT22;17153;51.212;3.228;2022-09-09T04:10:47;18.40;99.90
23065;DHT22;17153;51.212;3.228;2022-09-09T04:13:14;18.30;99.90
23065;DHT22;17153;51.212;3.228;2022-09-09T04:15:40;18.40;99.90
23065;DHT22;17153;51.212;3.228;2022-09-09T04:18:06;18.40;99.90
23065;DHT22;17153;51.212;3.228;2022-09-09T04:20:32;18.30;99.90
23065;DHT22;17153;51.212;3.228;2022-09-09T04:22:58;18.30;99.90
23065;DHT22;17153;51.212;3.228;2022-09-09T04:25:24;18.30;99.90
23065;DHT22;17153;51.212;3.228;2022-09-09T04:27:57;18.20;99.90
23065;DHT22;17153;51.212;3.228;2022-09-09T04:30:23;18.20;99.90
23065;DHT22;17153;51.212;3.228;2022-09-09T04:32:50;18.20;99.90
23065;DHT22;17153;51.212;3.228;2022-09-09T04:35:15;18.10;99.90
23065;DHT22;17153;51.212;3.228;2022-09-09T04:37:41;18.00;99.90
23065;DHT22;17153;51.212;3.228;2022-09-09T04:40:07;18.10;99.90
23065;DHT22;17153;51.212;3.228;2022-09-09T04:42:38;18.00;99.90
23065;DHT22;17153;51.212;3.228;2022-09-09T04:45:05;18.00;99.90
23065;DHT22;17153;51.212;3.228;2022-09-09T04:47:32;18.00;99.90
23065;DHT22;17153;51.212;3.228;2022-09-09T04:49:58;17.90;99.90
23065;DHT22;17153;51.212;3.228;2022-09-09T04:52:23;17.80;99.90
23065;DHT22;17153;51.212;3.228;2022-09-09T04:54:49;17.80;99.90
23065;DHT22;17153;51.212;3.228;2022-09-09T04:57:15;17.70;99.90
23065;DHT22;17153;51.212;3.228;2022-09-09T04:59:40;17.70;99.90
23065;DHT22;17153;51.212;3.228;2022-09-09T05:02:06;17.70;99.90
23065;DHT22;17153;51.212;3.228;2022-09-09T05:04:32;17.80;99.90
23065;DHT22;17153;51.212;3.228;2022-09-09T05:06:58;17.80;99.90
23065;DHT22;17153;51.212;3.228;2022-09-09T05:09:24;17.70;99.90
23065;DHT22;17153;51.212;3.228;2022-09-09T05:11:50;17.70;99.90
23065;DHT22;17153;51.212;3.228;2022-09-09T05:14:15;17.70;99.90
23065;DHT22;17153;51.212;3.228;2022-09-09T05:16:41;17.80;99.90
23065;DHT22;17153;51.212;3.228;2022-09-09T05:19:09;17.80;99.90
23065;DHT22;17153;51.212;3.228;2022-09-09T05:21:35;17.80;99.90
23065;DHT22;17153;51.212;3.228;2022-09-09T05:24:01;17.70;99.90
23065;DHT22;17153;51.212;3.228;2022-09-09T05:26:27;17.70;99.90
23065;DHT22;17153;51.212;3.228;2022-09-09T05:28:54;17.60;99.90
23065;DHT22;17153;51.212;3.228;2022-09-09T05:31:21;17.70;99.90
23065;DHT22;17153;51.212;3.228;2022-09-09T05:33:47;17.60;99.90
23065;DHT22;17153;51.212;3.228;2022-09-09T05:36:17;17.60;99.90
23065;DHT22;17153;51.212;3.228;2022-09-09T05:38:43;17.70;99.90
23065;DHT22;17153;51.212;3.228;2022-09-09T05:41:10;17.70;99.90
23065;DHT22;17153;51.212;3.228;2022-09-09T05:43:37;17.70;99.90
23065;DHT22;17153;51.212;3.228;2022-09-09T05:46:08;17.70;99.90
23065;DHT22;17153;51.212;3.228;2022-09-09T05:48:36;17.60;99.90
23065;DHT22;17153;51.212;3.228;2022-09-09T05:51:03;17.70;99.90
23065;DHT22;17153;51.212;3.228;2022-09-09T05:53:30;17.70;99.90
23065;DHT22;17153;51.212;3.228;2022-09-09T05:56:16;17.70;99.90
23065;DHT22;17153;51.212;3.228;2022-09-09T05:58:45;17.70;99.90
23065;DHT22;17153;51.212;3.228;2022-09-09T06:03:41;17.60;99.90
23065;DHT22;17153;51.212;3.228;2022-09-09T06:06:13;17.60;99.90
23065;DHT22;17153;51.212;3.228;2022-09-09T06:08:41;17.60;99.90
23065;DHT22;17153;51.212;3.228;2022-09-09T06:11:10;17.60;99.90
23065;DHT22;17153;51.212;3.228;2022-09-09T06:13:37;17.60;99.90
23065;DHT22;17153;51.212;3.228;2022-09-09T06:16:05;17.60;99.90
23065;DHT22;17153;51.212;3.228;2022-09-09T06:18:32;17.50;99.90
23065;DHT22;17153;51.212;3.228;2022-09-09T06:21:02;17.60;99.90
23065;DHT22;17153;51.212;3.228;2022-09-09T06:23:30;17.70;99.90
23065;DHT22;17153;51.212;3.228;2022-09-09T06:26:07;17.70;99.90
23065;DHT22;17153;51.212;3.228;2022-09-09T06:28:34;17.60;99.90
23065;DHT22;17153;51.212;3.228;2022-09-09T06:31:05;17.60;99.90
23065;DHT22;17153;51.212;3.228;2022-09-09T06:33:35;17.70;99.90
23065;DHT22;17153;51.212;3.228;2022-09-09T06:36:03;17.70;99.90
23065;DHT22;17153;51.212;3.228;2022-09-09T06:38:29;17.70;99.90
23065;DHT22;17153;51.212;3.228;2022-09-09T06:40:58;17.70;99.90
23065;DHT22;17153;51.212;3.228;2022-09-09T06:43:25;17.80;99.90
23065;DHT22;17153;51.212;3.228;2022-09-09T06:46:20;17.80;99.90
23065;DHT22;17153;51.212;3.228;2022-09-09T06:48:53;17.90;99.90
23065;DHT22;17153;51.212;3.228;2022-09-09T06:51:21;17.90;99.90
23065;DHT22;17153;51.212;3.228;2022-09-09T06:53:51;17.90;99.90
23065;DHT22;17153;51.212;3.228;2022-09-09T06:56:21;18.00;99.90
23065;DHT22;17153;51.212;3.228;2022-09-09T06:58:52;17.90;99.90
23065;DHT22;17153;51.212;3.228;2022-09-09T07:01:23;17.90;99.90
23065;DHT22;17153;51.212;3.228;2022-09-09T07:03:51;17.90;99.90
23065;DHT22;17153;51.212;3.228;2022-09-09T07:06:28;17.80;99.90
23065;DHT22;17153;51.212;3.228;2022-09-09T07:09:00;17.80;99.90
23065;DHT22;17153;51.212;3.228;2022-09-09T07:11:28;17.80;99.90
23065;DHT22;17153;51.212;3.228;2022-09-09T07:13:56;17.80;99.90
23065;DHT22;17153;51.212;3.228;2022-09-09T07:16:24;17.70;99.90
23065;DHT22;17153;51.212;3.228;2022-09-09T07:18:50;17.60;99.90
23065;DHT22;17153;51.212;3.228;2022-09-09T07:21:17;17.60;99.90
23065;DHT22;17153;51.212;3.228;2022-09-09T07:23:43;17.50;99.90
23065;DHT22;17153;51.212;3.228;2022-09-09T07:26:20;17.60;99.90
23065;DHT22;17153;51.212;3.228;2022-09-09T07:28:46;17.60;99.90
23065;DHT22;17153;51.212;3.228;2022-09-09T07:31:23;17.60;99.90
23065;DHT22;17153;51.212;3.228;2022-09-09T07:33:49;17.60;99.90
23065;DHT22;17153;51.212;3.228;2022-09-09T07:36:21;17.60;99.90
23065;DHT22;17153;51.212;3.228;2022-09-09T07:38:49;17.60;99.90
23065;DHT22;17153;51.212;3.228;2022-09-09T07:41:19;17.70;99.90
23065;DHT22;17153;51.212;3.228;2022-09-09T07:43:46;17.80;99.90
23065;DHT22;17153;51.212;3.228;2022-09-09T07:46:14;17.80;99.90
23065;DHT22;17153;51.212;3.228;2022-09-09T07:48:51;17.80;99.90
23065;DHT22;17153;51.212;3.228;2022-09-09T07:51:20;17.80;99.90
23065;DHT22;17153;51.212;3.228;2022-09-09T07:53:50;17.90;99.90
23065;DHT22;17153;51.212;3.228;2022-09-09T07:56:17;17.90;99.90
23065;DHT22;17153;51.212;3.228;2022-09-09T07:58:47;17.90;99.90
23065;DHT22;17153;51.212;3.228;2022-09-09T08:01:18;18.00;99.90
23065;DHT22;17153;51.212;3.228;2022-09-09T08:03:53;18.00;99.90
23065;DHT22;17153;51.212;3.228;2022-09-09T08:06:19;18.10;99.90
23065;DHT22;17153;51.212;3.228;2022-09-09T08:08:50;18.20;99.90
23065;DHT22;17153;51.212;3.228;2022-09-09T08:11:16;18.10;99.90
23065;DHT22;17153;51.212;3.228;2022-09-09T08:13:43;18.10;99.90
23065;DHT22;17153;51.212;3.228;2022-09-09T08:16:12;18.10;99.90
23065;DHT22;17153;51.212;3.228;2022-09-09T08:18:38;18.10;99.90
23065;DHT22;17153;51.212;3.228;2022-09-09T08:21:13;18.10;99.90
23065;DHT22;17153;51.212;3.228;2022-09-09T08:23:40;18.20;99.90
23065;DHT22;17153;51.212;3.228;2022-09-09T08:26:22;18.20;99.90
23065;DHT22;17153;51.212;3.228;2022-09-09T08:28:49;18.20;99.90
23065;DHT22;17153;51.212;3.228;2022-09-09T08:31:19;18.30;99.90
23065;DHT22;17153;51.212;3.228;2022-09-09T08:33:45;18.40;99.90
23065;DHT22;17153;51.212;3.228;2022-09-09T08:36:14;18.40;99.90
23065;DHT22;17153;51.212;3.228;2022-09-09T08:38:41;18.40;99.90
23065;DHT22;17153;51.212;3.228;2022-09-09T08:52:15;18.80;99.90
23065;DHT22;17153;51.212;3.228;2022-09-09T08:54:41;18.90;99.90
23065;DHT22;17153;51.212;3.228;2022-09-09T08:57:18;19.00;99.90
23065;DHT22;17153;51.212;3.228;2022-09-09T08:59:45;19.10;99.90
23065;DHT22;17153;51.212;3.228;2022-09-09T09:02:21;19.10;99.90
23065;DHT22;17153;51.212;3.228;2022-09-09T09:13:01;19.40;99.90
23065;DHT22;17153;51.212;3.228;2022-09-09T09:15:33;19.40;99.90
23065;DHT22;17153;51.212;3.228;2022-09-09T09:18:03;19.50;99.90
23065;DHT22;17153;51.212;3.228;2022-09-09T09:20:54;19.50;99.90
23065;DHT22;17153;51.212;3.228;2022-09-09T09:23:25;19.60;99.90
23065;DHT22;17153;51.212;3.228;2022-09-09T09:25:56;19.60;99.90
23065;DHT22;17153;51.212;3.228;2022-09-09T09:28:29;19.60;99.90
23065;DHT22;17153;51.212;3.228;2022-09-09T09:33:34;19.70;99.90
23065;DHT22;17153;51.212;3.228;2022-09-09T09:36:02;19.80;99.90
23065;DHT22;17153;51.212;3.228;2022-09-09T09:38:29;19.80;99.90
23065;DHT22;17153;51.212;3.228;2022-09-09T09:40:57;19.90;99.90
23065;DHT22;17153;51.212;3.228;2022-09-09T09:43:53;19.90;99.90
23065;DHT22;17153;51.212;3.228;2022-09-09T09:46:21;19.90;99.90
23065;DHT22;17153;51.212;3.228;2022-09-09T09:49:09;19.90;99.90
23065;DHT22;17153;51.212;3.228;2022-09-09T09:51:35;20.00;99.90
23065;DHT22;17153;51.212;3.228;2022-09-09T09:56:41;20.00;99.90
23065;DHT22;17153;51.212;3.228;2022-09-09T10:01:53;19.80;99.90
23065;DHT22;17153;51.212;3.228;2022-09-09T10:04:21;19.90;99.90
23065;DHT22;17153;51.212;3.228;2022-09-09T10:06:49;20.00;99.90
23065;DHT22;17153;51.212;3.228;2022-09-09T10:09:26;20.10;99.90
23065;DHT22;17153;51.212;3.228;2022-09-09T10:26:18;20.20;99.90
23065;DHT22;17153;51.212;3.228;2022-09-09T10:32:23;20.30;99.90
23065;DHT22;17153;51.212;3.228;2022-09-09T10:34:59;20.30;99.90
23065;DHT22;17153;51.212;3.228;2022-09-09T10:37:56;20.20;99.90
23065;DHT22;17153;51.212;3.228;2022-09-09T10:57:00;19.80;99.90
23065;DHT22;17153;51.212;3.228;2022-09-09T10:59:36;19.80;99.90
23065;DHT22;17153;51.212;3.228;2022-09-09T11:02:27;19.90;99.90
23065;DHT22;17153;51.212;3.228;2022-09-09T11:05:15;19.90;99.90
23065;DHT22;17153;51.212;3.228;2022-09-09T11:07:52;19.90;99.90
23065;DHT22;17153;51.212;3.228;2022-09-09T11:10:28;19.90;99.90
23065;DHT22;17153;51.212;3.228;2022-09-09T11:13:02;20.00;99.90
23065;DHT22;17153;51.212;3.228;2022-09-09T11:15:39;20.00;99.90
23065;DHT22;17153;51.212;3.228;2022-09-09T11:18:12;20.00;99.90
23065;DHT22;17153;51.212;3.228;2022-09-09T11:20:39;20.00;99.90
23065;DHT22;17153;51.212;3.228;2022-09-09T11:23:11;20.00;99.90
23065;DHT22;17153;51.212;3.228;2022-09-09T11:25:41;20.10;99.90
23065;DHT22;17153;51.212;3.228;2022-09-09T11:28:20;20.10;99.90
23065;DHT22;17153;51.212;3.228;2022-09-09T11:34:08;20.10;99.90
23065;DHT22;17153;51.212;3.228;2022-09-09T11:41:52;20.10;99.90
23065;DHT22;17153;51.212;3.228;2022-09-09T11:44:27;20.10;99.90
23065;DHT22;17153;51.212;3.228;2022-09-09T11:46:53;20.10;99.90
23065;DHT22;17153;51.212;3.228;2022-09-09T11:49:28;20.10;99.90
23065;DHT22;17153;51.212;3.228;2022-09-09T11:51:54;20.20;99.90
23065;DHT22;17153;51.212;3.228;2022-09-09T11:54:32;20.20;99.90
23065;DHT22;17153;51.212;3.228;2022-09-09T11:57:04;20.20;99.90
23065;DHT22;17153;51.212;3.228;2022-09-09T11:59:51;20.20;99.90
23065;DHT22;17153;51.212;3.228;2022-09-09T12:02:25;20.20;99.90
23065;DHT22;17153;51.212;3.228;2022-09-09T12:05:12;20.30;99.90
23065;DHT22;17153;51.212;3.228;2022-09-09T12:07:45;20.40;99.90
23065;DHT22;17153;51.212;3.228;2022-09-09T12:10:30;20.60;99.90
23065;DHT22;17153;51.212;3.228;2022-09-09T12:13:18;20.80;99.90
23065;DHT22;17153;51.212;3.228;2022-09-09T12:15:50;21.00;99.90
23065;DHT22;17153;51.212;3.228;2022-09-09T12:18:25;21.20;99.90
23065;DHT22;17153;51.212;3.228;2022-09-09T12:21:18;21.30;99.90
23065;DHT22;17153;51.212;3.228;2022-09-09T12:23:49;21.30;99.90
23065;DHT22;17153;51.212;3.228;2022-09-09T12:29:04;21.60;99.90
23065;DHT22;17153;51.212;3.228;2022-09-09T12:31:46;21.80;99.90
23065;DHT22;17153;51.212;3.228;2022-09-09T12:34:35;21.90;99.90
23065;DHT22;17153;51.212;3.228;2022-09-09T12:37:21;22.00;99.90
23065;DHT22;17153;51.212;3.228;2022-09-09T12:40:00;22.00;99.90
23065;DHT22;17153;51.212;3.228;2022-09-09T12:42:28;21.90;99.90
23065;DHT22;17153;51.212;3.228;2022-09-09T12:44:56;21.90;99.90
23065;DHT22;17153;51.212;3.228;2022-09-09T12:47:35;21.80;99.90
23065;DHT22;17153;51.212;3.228;2022-09-09T12:50:03;21.60;99.90
23065;DHT22;17153;51.212;3.228;2022-09-09T12:52:35;21.60;99.90
23065;DHT22;17153;51.212;3.228;2022-09-09T12:55:03;21.60;99.90
23065;DHT22;17153;51.212;3.228;2022-09-09T12:57:35;21.60;99.90
23065;DHT22;17153;51.212;3.228;2022-09-09T13:00:16;21.60;99.90
23065;DHT22;17153;51.212;3.228;2022-09-09T13:02:51;21.70;99.90
23065;DHT22;17153;51.212;3.228;2022-09-09T13:05:35;21.70;99.90
23065;DHT22;17153;51.212;3.228;2022-09-09T13:08:03;21.80;99.90
23065;DHT22;17153;51.212;3.228;2022-09-09T13:10:35;21.80;99.90
23065;DHT22;17153;51.212;3.228;2022-09-09T13:13:04;21.90;99.90
23065;DHT22;17153;51.212;3.228;2022-09-09T13:15:37;21.80;99.90
23065;DHT22;17153;51.212;3.228;2022-09-09T13:18:06;21.90;99.90
23065;DHT22;17153;51.212;3.228;2022-09-09T13:20:36;21.80;99.90
23065;DHT22;17153;51.212;3.228;2022-09-09T13:23:02;21.90;99.90
23065;DHT22;17153;51.212;3.228;2022-09-09T13:25:28;22.00;99.90
23065;DHT22;17153;51.212;3.228;2022-09-09T13:28:03;22.10;99.90
23065;DHT22;17153;51.212;3.228;2022-09-09T13:30:36;22.20;99.90
23065;DHT22;17153;51.212;3.228;2022-09-09T13:36:03;22.10;99.90
23065;DHT22;17153;51.212;3.228;2022-09-09T13:38:32;22.00;99.90
23065;DHT22;17153;51.212;3.228;2022-09-09T13:41:00;21.90;99.90
23065;DHT22;17153;51.212;3.228;2022-09-09T13:43:44;21.70;99.90
23065;DHT22;17153;51.212;3.228;2022-09-09T13:54:04;21.90;99.90
23065;DHT22;17153;51.212;3.228;2022-09-09T13:56:35;21.80;99.90
23065;DHT22;17153;51.212;3.228;2022-09-09T13:59:02;21.70;99.90
23065;DHT22;17153;51.212;3.228;2022-09-09T14:01:28;21.50;99.90
23065;DHT22;17153;51.212;3.228;2022-09-09T14:03:54;21.60;99.90
23065;DHT22;17153;51.212;3.228;2022-09-09T14:06:20;21.60;99.90
23065;DHT22;17153;51.212;3.228;2022-09-09T14:08:48;21.50;99.90
23065;DHT22;17153;51.212;3.228;2022-09-09T14:11:14;21.50;99.90
23065;DHT22;17153;51.212;3.228;2022-09-09T14:13:40;21.60;99.90
23065;DHT22;17153;51.212;3.228;2022-09-09T14:16:06;21.60;99.90
23065;DHT22;17153;51.212;3.228;2022-09-09T14:18:31;21.60;99.90
23065;DHT22;17153;51.212;3.228;2022-09-09T14:20:57;21.70;99.90
23065;DHT22;17153;51.212;3.228;2022-09-09T14:23:24;21.60;99.90
23065;DHT22;17153;51.212;3.228;2022-09-09T14:25:50;21.60;99.90
23065;DHT22;17153;51.212;3.228;2022-09-09T14:28:16;21.70;99.90
23065;DHT22;17153;51.212;3.228;2022-09-09T14:30:43;21.70;99.90
23065;DHT22;17153;51.212;3.228;2022-09-09T14:33:14;21.70;99.90
23065;DHT22;17153;51.212;3.228;2022-09-09T14:35:40;21.70;99.90
23065;DHT22;17153;51.212;3.228;2022-09-09T14:38:06;21.70;99.90
23065;DHT22;17153;51.212;3.228;2022-09-09T14:40:34;21.70;99.90
23065;DHT22;17153;51.212;3.228;2022-09-09T14:43:00;21.80;99.90
23065;DHT22;17153;51.212;3.228;2022-09-09T14:45:26;21.70;99.90
23065;DHT22;17153;51.212;3.228;2022-09-09T14:47:52;21.80;99.90
23065;DHT22;17153;51.212;3.228;2022-09-09T14:50:19;21.80;99.90
23065;DHT22;17153;51.212;3.228;2022-09-09T14:52:45;21.80;99.90
23065;DHT22;17153;51.212;3.228;2022-09-09T14:55:11;21.80;99.90
23065;DHT22;17153;51.212;3.228;2022-09-09T14:57:36;21.80;99.90
23065;DHT22;17153;51.212;3.228;2022-09-09T15:00:06;21.80;99.90
23065;DHT22;17153;51.212;3.228;2022-09-09T15:02:32;21.90;99.90
23065;DHT22;17153;51.212;3.228;2022-09-09T15:04:58;21.90;99.90
23065;DHT22;17153;51.212;3.228;2022-09-09T15:07:24;21.90;99.90
23065;DHT22;17153;51.212;3.228;2022-09-09T15:09:50;22.00;99.90
23065;DHT22;17153;51.212;3.228;2022-09-09T15:12:17;22.00;99.90
23065;DHT22;17153;51.212;3.228;2022-09-09T15:14:44;22.00;99.90
23065;DHT22;17153;51.212;3.228;2022-09-09T15:17:10;21.90;99.90
23065;DHT22;17153;51.212;3.228;2022-09-09T15:19:36;22.00;99.90
23065;DHT22;17153;51.212;3.228;2022-09-09T15:22:04;22.00;99.90
23065;DHT22;17153;51.212;3.228;2022-09-09T15:24:31;22.00;99.90
23065;DHT22;17153;51.212;3.228;2022-09-09T15:26:57;22.00;99.90
23065;DHT22;17153;51.212;3.228;2022-09-09T15:29:23;22.10;99.90
23065;DHT22;17153;51.212;3.228;2022-09-09T15:31:49;22.00;99.90
23065;DHT22;17153;51.212;3.228;2022-09-09T15:34:14;21.90;99.90
23065;DHT22;17153;51.212;3.228;2022-09-09T15:36:42;21.90;99.90
23065;DHT22;17153;51.212;3.228;2022-09-09T15:39:10;21.90;99.90
23065;DHT22;17153;51.212;3.228;2022-09-09T15:41:38;22.00;99.90
23065;DHT22;17153;51.212;3.228;2022-09-09T15:44:04;22.00;99.90
23065;DHT22;17153;51.212;3.228;2022-09-09T15:46:31;22.00;99.90
23065;DHT22;17153;51.212;3.228;2022-09-09T15:49:15;22.10;99.90
23065;DHT22;17153;51.212;3.228;2022-09-09T15:51:45;22.20;99.90
23065;DHT22;17153;51.212;3.228;2022-09-09T15:54:19;22.20;99.90
23065;DHT22;17153;51.212;3.228;2022-09-09T15:56:47;22.20;99.90
23065;DHT22;17153;51.212;3.228;2022-09-09T15:59:15;22.10;99.90
23065;DHT22;17153;51.212;3.228;2022-09-09T16:01:41;22.00;99.90
23065;DHT22;17153;51.212;3.228;2022-09-09T16:04:08;22.00;99.90
23065;DHT22;17153;51.212;3.228;2022-09-09T16:06:34;22.10;99.90
23065;DHT22;17153;51.212;3.228;2022-09-09T16:09:01;22.00;99.90
23065;DHT22;17153;51.212;3.228;2022-09-09T16:11:30;22.00;99.90
23065;DHT22;17153;51.212;3.228;2022-09-09T16:13:56;22.00;99.90
23065;DHT22;17153;51.212;3.228;2022-09-09T16:16:24;21.90;99.90
23065;DHT22;17153;51.212;3.228;2022-09-09T16:19:13;21.90;99.90
23065;DHT22;17153;51.212;3.228;2022-09-09T16:21:56;21.80;99.90
23065;DHT22;17153;51.212;3.228;2022-09-09T16:24:22;21.90;99.90
23065;DHT22;17153;51.212;3.228;2022-09-09T16:26:51;21.90;99.90
23065;DHT22;17153;51.212;3.228;2022-09-09T16:29:18;22.00;99.90
23065;DHT22;17153;51.212;3.228;2022-09-09T16:31:45;22.00;99.90
23065;DHT22;17153;51.212;3.228;2022-09-09T16:34:12;21.90;99.90
23065;DHT22;17153;51.212;3.228;2022-09-09T16:36:39;21.90;99.90
23065;DHT22;17153;51.212;3.228;2022-09-09T16:39:07;21.90;99.90
23065;DHT22;17153;51.212;3.228;2022-09-09T16:41:35;21.90;99.90
23065;DHT22;17153;51.212;3.228;2022-09-09T16:44:03;21.90;99.90
23065;DHT22;17153;51.212;3.228;2022-09-09T16:46:30;21.90;99.90
23065;DHT22;17153;51.212;3.228;2022-09-09T16:48:57;21.90;99.90
23065;DHT22;17153;51.212;3.228;2022-09-09T16:51:27;21.90;99.90
23065;DHT22;17153;51.212;3.228;2022-09-09T16:53:55;22.00;99.90
23065;DHT22;17153;51.212;3.228;2022-09-09T16:56:23;22.00;99.90
23065;DHT22;17153;51.212;3.228;2022-09-09T16:58:54;22.00;99.90
23065;DHT22;17153;51.212;3.228;2022-09-09T17:01:27;22.00;99.90
23065;DHT22;17153;51.212;3.228;2022-09-09T17:03:54;22.10;99.90
23065;DHT22;17153;51.212;3.228;2022-09-09T17:06:21;22.10;99.90
23065;DHT22;17153;51.212;3.228;2022-09-09T17:08:46;22.10;99.90
23065;DHT22;17153;51.212;3.228;2022-09-09T17:11:15;22.10;99.90
23065;DHT22;17153;51.212;3.228;2022-09-09T17:13:42;22.10;99.90
23065;DHT22;17153;51.212;3.228;2022-09-09T17:16:08;22.10;99.90
23065;DHT22;17153;51.212;3.228;2022-09-09T17:18:34;22.10;99.90
23065;DHT22;17153;51.212;3.228;2022-09-09T17:21:05;22.00;99.90
23065;DHT22;17153;51.212;3.228;2022-09-09T17:23:32;22.00;99.90
23065;DHT22;17153;51.212;3.228;2022-09-09T17:25:59;22.00;99.90
23065;DHT22;17153;51.212;3.228;2022-09-09T17:28:26;22.00;99.90
23065;DHT22;17153;51.212;3.228;2022-09-09T17:30:59;21.90;99.90
23065;DHT22;17153;51.212;3.228;2022-09-09T17:33:27;22.00;99.90
23065;DHT22;17153;51.212;3.228;2022-09-09T17:35:57;22.00;99.90
23065;DHT22;17153;51.212;3.228;2022-09-09T17:38:24;22.00;99.90
23065;DHT22;17153;51.212;3.228;2022-09-09T17:40:50;21.90;99.90
23065;DHT22;17153;51.212;3.228;2022-09-09T17:43:25;21.90;99.90
23065;DHT22;17153;51.212;3.228;2022-09-09T17:45:51;21.90;99.90
23065;DHT22;17153;51.212;3.228;2022-09-09T17:48:17;21.90;99.90
23065;DHT22;17153;51.212;3.228;2022-09-09T17:50:42;21.80;99.90
23065;DHT22;17153;51.212;3.228;2022-09-09T17:53:08;21.80;99.90
23065;DHT22;17153;51.212;3.228;2022-09-09T17:55:34;21.80;99.90
23065;DHT22;17153;51.212;3.228;2022-09-09T17:58:00;21.80;99.90
23065;DHT22;17153;51.212;3.228;2022-09-09T18:00:25;21.80;99.90
23065;DHT22;17153;51.212;3.228;2022-09-09T18:02:51;21.80;99.90